This is the latest recevied weather packets stored in our database for station/object N7CEE-2. If no packets are shown the sender has not sent any weather packets the latest 10 day(s).
| Time | Temp. | Humidity | Pressure | Rain* | Wind** | Luminosity | Snow |
|---|---|---|---|---|---|---|---|
| 1777395635 | 22.78° C | 27% | 1019.5 hPa | 0 mm | - | 758 W/m² | - |
| 1777395332 | 22.78° C | 27% | 1019.4 hPa | 0 mm | - | 742 W/m² | - |
| 1777395030 | 22.78° C | 27% | 1019.4 hPa | 0 mm | - | 726 W/m² | - |
| 1777394726 | 22.78° C | 27% | 1019.5 hPa | 0 mm | - | 712 W/m² | - |
| 1777394423 | 22.78° C | 27% | 1019.5 hPa | 0 mm | - | 695 W/m² | - |
| 1777394119 | 21.67° C | 30% | 1019.3 hPa | 0 mm | - | 677 W/m² | - |
| 1777393815 | 22.22° C | 28% | 1019.3 hPa | 0 mm | - | 661 W/m² | - |
| 1777393514 | 22.22° C | 28% | 1019.4 hPa | 0 mm | - | 646 W/m² | - |
| 1777393210 | 21.67° C | 28% | 1019.4 hPa | 0 mm | - | 630 W/m² | - |
| 1777392907 | 22.22° C | 27% | 1019.4 hPa | 0 mm | - | 608 W/m² | - |
| 1777392602 | 22.78° C | 28% | 1019.3 hPa | 0 mm | - | 590 W/m² | - |
| 1777392298 | 21.67° C | 28% | 1019.5 hPa | 0 mm | - | 573 W/m² | - |
| 1777391998 | 21.11° C | 29% | 1019.4 hPa | 0 mm | - | 553 W/m² | - |
| 1777391693 | 21.11° C | 30% | 1019.4 hPa | 0 mm | - | 581 W/m² | - |
| 1777391390 | 20.56° C | 30% | 1019.4 hPa | 0 mm | - | 509 W/m² | - |
| 1777391087 | 20.56° C | 31% | 1019.4 hPa | 0 mm | - | 494 W/m² | - |
| 1777390783 | 20.56° C | 31% | 1019.3 hPa | 0 mm | - | 474 W/m² | - |
| 1777390479 | 20.56° C | 31% | 1019.5 hPa | 0 mm | - | 450 W/m² | - |
| 1777390176 | 20.56° C | 30% | 1019.3 hPa | 0 mm | - | 435 W/m² | - |
| 1777389872 | 20° C | 30% | 1019.3 hPa | 0 mm | - | 415 W/m² | - |
| 1777389569 | 19.44° C | 32% | 1019.4 hPa | 0 mm | - | 395 W/m² | - |
| 1777389266 | 19.44° C | 32% | 1019.3 hPa | 0 mm | - | 375 W/m² | - |
| 1777388964 | 19.44° C | 32% | 1019 hPa | 0 mm | - | 358 W/m² | - |
| 1777388661 | 19.44° C | 33% | 1018.9 hPa | 0 mm | - | 336 W/m² | - |
| 1777388357 | 18.89° C | 34% | 1019.2 hPa | 0 mm | - | 314 W/m² | - |
* Rain latest hour (hover to see other rain measurements)
** Current wind speed in m/s (hover to see current wind gust speed)